Time;durP1;ratioP1;P1;durP2;ratioP2;P2;SDS_P1;SDS_P2;PMS_P1;PMS_P2;Temp;Humidity;BMP_temperature;BMP_pressure;BME280_temperature;BME280_humidity;BME280_pressure;Samples;Min_cycle;Max_cycle;Signal;HPM_P1;HPM_P2
2023/11/22 00:00:39;;;;;;;9.65;4.82;;;;;;;0.65;81.40;99672.97;5053789;28;20123;-78
2023/11/22 00:03:05;;;;;;;7.65;4.90;;;;;;;1.83;84.27;99675.59;5050468;28;20033;-78
2023/11/22 00:05:30;;;;;;;9.10;5.38;;;;;;;1.23;82.57;99666.63;5039032;28;20051;-78
2023/11/22 00:07:57;;;;;;;12.10;5.47;;;;;;;1.50;81.58;99677.56;5034432;28;20028;-78
2023/11/22 00:10:23;;;;;;;8.93;5.07;;;;;;;1.16;81.39;99684.88;5048120;28;20025;-77
2023/11/22 00:12:48;;;;;;;7.05;4.82;;;;;;;0.96;81.21;99677.53;5048365;28;20037;-78
2023/11/22 00:15:17;;;;;;;8.82;4.82;;;;;;;0.81;81.16;99681.81;5050089;28;20040;-78
2023/11/22 00:17:43;;;;;;;7.75;5.38;;;;;;;0.81;82.66;99679.19;5051751;28;20036;-78
2023/11/22 00:20:09;;;;;;;7.15;4.93;;;;;;;0.72;82.20;99673.13;5049467;28;20051;-78
2023/11/22 00:22:35;;;;;;;9.40;6.10;;;;;;;1.51;84.88;99680.97;5060957;28;20059;-77
2023/11/22 00:25:03;;;;;;;11.75;6.15;;;;;;;1.05;83.07;99677.34;5042160;28;20103;-76
2023/11/22 00:27:32;;;;;;;9.63;4.97;;;;;;;0.57;80.86;99672.97;5042319;28;20117;-78
2023/11/22 00:29:58;;;;;;;8.13;4.95;;;;;;;0.84;81.18;99684.94;5049531;28;20020;-78
2023/11/22 00:32:23;;;;;;;9.85;5.40;;;;;;;0.67;82.74;99686.75;5045939;28;20086;-77
2023/11/22 00:34:49;;;;;;;10.88;5.55;;;;;;;1.23;83.13;99683.22;5046186;28;20388;-78
2023/11/22 00:37:15;;;;;;;9.20;5.47;;;;;;;1.38;82.11;99686.78;5049917;28;20029;-76
2023/11/22 00:39:41;;;;;;;11.13;6.50;;;;;;;0.54;81.77;99680.34;5045346;28;20036;-76
2023/11/22 00:42:07;;;;;;;13.70;5.40;;;;;;;0.70;82.67;99675.06;5046185;28;20498;-77
2023/11/22 00:44:32;;;;;;;7.75;5.13;;;;;;;1.53;83.37;99684.25;5052501;28;20024;-76
2023/11/22 00:46:58;;;;;;;6.95;4.63;;;;;;;0.86;82.00;99690.84;5043768;28;20116;-77
2023/11/22 00:49:24;;;;;;;9.57;6.05;;;;;;;1.36;83.82;99696.66;5052402;28;20060;-77
2023/11/22 00:51:50;;;;;;;7.95;5.43;;;;;;;1.03;80.57;99699.50;5048620;28;20408;-75
2023/11/22 00:54:16;;;;;;;7.90;4.55;;;;;;;1.12;81.17;99707.22;5042632;28;20107;-76
2023/11/22 00:56:42;;;;;;;11.27;6.28;;;;;;;1.36;82.14;99707.19;5056220;28;20226;-77
2023/11/22 00:59:07;;;;;;;9.10;5.55;;;;;;;1.70;80.99;99698.19;5051866;28;20622;-77
2023/11/22 01:01:32;;;;;;;10.50;5.53;;;;;;;1.84;81.73;99692.19;5054448;28;20032;-77
2023/11/22 01:03:58;;;;;;;7.97;5.10;;;;;;;0.91;79.53;99706.94;5047836;28;20056;-77
2023/11/22 01:06:26;;;;;;;13.82;5.32;;;;;;;0.69;81.51;99710.22;5053564;28;20033;-77
2023/11/22 01:08:52;;;;;;;9.05;5.03;;;;;;;1.93;81.48;99710.41;5054947;28;20025;-76
2023/11/22 01:11:17;;;;;;;8.05;5.00;;;;;;;1.57;78.98;99721.59;5051479;28;20082;-76
2023/11/22 01:13:43;;;;;;;8.60;5.60;;;;;;;0.86;81.46;99722.38;5048214;28;20130;-76
2023/11/22 01:16:13;;;;;;;7.90;5.78;;;;;;;0.41;81.68;99711.53;5052577;28;20033;-76
2023/11/22 01:18:39;;;;;;;14.32;6.28;;;;;;;1.49;82.84;99723.25;5052361;28;20496;-75
2023/11/22 01:21:05;;;;;;;12.15;5.65;;;;;;;1.70;82.01;99729.75;5051781;28;20035;-76
2023/11/22 01:23:34;;;;;;;15.43;6.18;;;;;;;1.50;79.84;99726.72;5052909;28;20037;-76
2023/11/22 01:26:00;;;;;;;11.93;6.57;;;;;;;1.30;82.00;99721.00;5052327;28;20029;-76
2023/11/22 01:28:27;;;;;;;8.40;5.45;;;;;;;1.14;80.58;99726.28;5051262;28;20405;-76
2023/11/22 01:30:54;;;;;;;9.50;4.78;;;;;;;1.58;81.13;99725.84;5051100;28;20033;-75
2023/11/22 01:33:20;;;;;;;10.07;5.30;;;;;;;1.81;80.53;99713.59;5050736;28;20111;-76
2023/11/22 01:35:46;;;;;;;9.00;5.50;;;;;;;2.19;78.95;99716.19;5053118;28;20037;-77
2023/11/22 01:38:11;;;;;;;8.73;5.45;;;;;;;2.29;78.89;99718.63;5050935;28;20032;-75
2023/11/22 01:40:46;;;;;;;11.30;6.10;;;;;;;2.20;77.33;99722.28;5049527;28;20026;-76
2023/11/22 01:43:17;;;;;;;10.70;5.72;;;;;;;1.98;78.61;99726.53;5055172;28;20040;-76
2023/11/22 01:45:42;;;;;;;9.57;5.53;;;;;;;1.58;78.95;99731.09;5047110;28;20029;-76
2023/11/22 01:48:10;;;;;;;9.60;5.53;;;;;;;1.19;79.59;99731.88;5043203;28;20055;-76
2023/11/22 01:50:37;;;;;;;8.95;5.00;;;;;;;2.02;79.43;99742.78;5046492;28;20108;-76
2023/11/22 01:53:03;;;;;;;11.23;6.28;;;;;;;1.26;80.11;99730.22;5054999;28;20063;-77
2023/11/22 01:55:30;;;;;;;10.68;6.63;;;;;;;1.06;80.69;99736.81;5056215;28;20061;-78
2023/11/22 01:57:56;;;;;;;8.82;5.70;;;;;;;1.24;80.29;99740.09;5051483;28;20031;-78
2023/11/22 02:00:25;;;;;;;8.45;5.80;;;;;;;1.61;81.21;99736.03;5052196;28;20029;-77
2023/11/22 02:02:50;;;;;;;11.32;6.47;;;;;;;0.81;81.45;99740.44;5045062;28;20087;-78
2023/11/22 02:05:16;;;;;;;17.10;7.47;;;;;;;0.19;82.66;99743.66;5053569;28;20030;-79
2023/11/22 02:07:42;;;;;;;11.82;5.85;;;;;;;0.45;83.11;99739.09;5051565;28;20165;-77
2023/11/22 02:10:08;;;;;;;10.10;5.78;;;;;;;0.34;83.59;99744.66;5068083;28;20028;-77
2023/11/22 02:12:33;;;;;;;12.95;6.03;;;;;;;0.83;83.06;99741.09;5050838;28;20025;-78
2023/11/22 02:14:59;;;;;;;9.85;6.45;;;;;;;0.81;83.63;99742.25;5049395;28;20064;-76
2023/11/22 02:17:24;;;;;;;8.70;5.68;;;;;;;0.30;82.20;99749.41;5055358;28;20036;-76
2023/11/22 02:19:49;;;;;;;10.10;5.70;;;;;;;0.99;82.89;99738.47;5047453;28;20029;-76
2023/11/22 02:22:15;;;;;;;8.65;5.35;;;;;;;0.18;81.01;99747.22;5048022;28;20028;-77
2023/11/22 02:24:40;;;;;;;10.15;5.13;;;;;;;-0.23;82.25;99754.97;5050799;28;20024;-75
2023/11/22 02:27:06;;;;;;;9.77;5.60;;;;;;;0.44;82.14;99737.44;5044033;28;20489;-76
2023/11/22 02:29:32;;;;;;;12.57;5.70;;;;;;;-0.02;81.47;99749.31;5048378;28;20028;-76
2023/11/22 02:31:57;;;;;;;13.45;6.15;;;;;;;0.06;82.94;99748.53;5050006;28;20029;-76
2023/11/22 02:34:23;;;;;;;10.25;6.25;;;;;;;0.51;83.33;99752.41;5050092;28;20036;-76
2023/11/22 02:36:48;;;;;;;12.00;6.57;;;;;;;0.30;83.65;99756.47;5050840;28;20501;-76
2023/11/22 02:39:14;;;;;;;9.73;5.88;;;;;;;0.46;82.35;99752.06;5050433;28;20048;-75
2023/11/22 02:41:39;;;;;;;11.45;5.97;;;;;;;1.30;82.50;99752.56;5050056;28;20029;-77
2023/11/22 02:44:06;;;;;;;8.85;5.93;;;;;;;1.58;81.48;99754.78;5051620;28;20033;-75
2023/11/22 02:46:33;;;;;;;9.07;5.32;;;;;;;1.72;79.82;99760.19;5047116;28;20037;-77
2023/11/22 02:48:59;;;;;;;13.25;5.97;;;;;;;-0.25;80.49;99767.44;5049186;28;20044;-75
2023/11/22 02:51:25;;;;;;;9.18;5.78;;;;;;;1.15;82.98;99770.00;5050743;28;20033;-74
2023/11/22 02:53:51;;;;;;;8.63;5.82;;;;;;;0.96;80.49;99754.53;5046066;28;20682;-75
2023/11/22 02:56:16;;;;;;;8.90;5.82;;;;;;;2.09;79.53;99759.53;5051529;28;20096;-76
2023/11/22 02:58:42;;;;;;;9.43;5.85;;;;;;;2.25;78.34;99762.06;5049338;28;20055;-75
2023/11/22 03:01:07;;;;;;;9.02;5.70;;;;;;;2.47;77.43;99758.66;5048009;28;20039;-76
2023/11/22 03:03:34;;;;;;;7.95;5.40;;;;;;;2.45;77.29;99763.28;5051025;28;20053;-75
2023/11/22 03:05:59;;;;;;;9.40;5.43;;;;;;;2.39;76.48;99763.16;5045471;28;20048;-75
2023/11/22 03:08:24;;;;;;;9.70;5.72;;;;;;;2.44;76.68;99769.56;5047114;28;20375;-77
2023/11/22 03:10:50;;;;;;;8.45;5.55;;;;;;;1.75;77.63;99777.44;5055453;28;20455;-77
2023/11/22 03:13:16;;;;;;;12.35;6.90;;;;;;;1.99;78.43;99775.53;5045483;28;20115;-76
2023/11/22 03:15:42;;;;;;;13.55;6.85;;;;;;;2.37;76.59;99765.97;5051726;28;20035;-77
2023/11/22 03:18:07;;;;;;;10.25;5.95;;;;;;;1.75;78.09;99764.28;5051208;28;20524;-77
2023/11/22 03:20:33;;;;;;;13.10;5.45;;;;;;;1.13;77.25;99776.41;5058538;28;20033;-77
2023/11/22 03:22:59;;;;;;;7.93;5.60;;;;;;;1.23;79.55;99771.78;5049692;28;20078;-76
2023/11/22 03:25:25;;;;;;;8.52;5.43;;;;;;;1.65;79.42;99782.88;5045477;28;20119;-76
2023/11/22 03:27:51;;;;;;;9.98;6.05;;;;;;;1.81;78.59;99784.66;5048453;28;20031;-76
2023/11/22 03:30:17;;;;;;;9.88;5.28;;;;;;;2.00;78.12;99792.97;5048690;28;20167;-78
2023/11/22 03:32:43;;;;;;;9.82;6.28;;;;;;;1.17;78.15;99796.94;5054128;28;20210;-76
2023/11/22 03:35:09;;;;;;;12.98;5.93;;;;;;;0.51;79.04;99811.97;5048757;28;20401;-76
2023/11/22 03:37:35;;;;;;;9.48;5.75;;;;;;;-0.02;80.65;99823.59;5049729;28;20507;-76
2023/11/22 03:40:01;;;;;;;11.02;6.47;;;;;;;-0.28;82.53;99843.78;5047127;28;20060;-77
2023/11/22 03:42:29;;;;;;;10.32;6.00;;;;;;;-0.31;83.26;99844.13;5046220;28;20127;-76
2023/11/22 03:44:55;;;;;;;10.73;6.85;;;;;;;-0.49;83.37;99845.13;5048246;28;20088;-80
2023/11/22 03:47:24;;;;;;;14.85;6.55;;;;;;;-0.82;84.61;99836.22;5048568;28;20041;-76
2023/11/22 03:49:49;;;;;;;13.23;6.57;;;;;;;-0.91;84.81;99858.06;5049982;28;20043;-77
2023/11/22 03:52:15;;;;;;;15.35;7.13;;;;;;;-0.60;84.90;99855.88;5049185;28;20024;-77
2023/11/22 03:54:41;;;;;;;15.98;6.93;;;;;;;-1.15;86.19;99856.06;5047584;28;20469;-78
2023/11/22 03:57:06;;;;;;;12.35;6.55;;;;;;;-0.95;85.69;99854.13;5046564;28;20504;-75
2023/11/22 03:59:34;;;;;;;11.75;6.05;;;;;;;-0.27;86.36;99861.19;5046371;28;20033;-76
2023/11/22 04:01:59;;;;;;;9.70;5.78;;;;;;;1.14;82.72;99857.72;5048622;28;20039;-77
2023/11/22 04:04:25;;;;;;;14.02;6.85;;;;;;;1.04;81.28;99858.88;5050766;28;20033;-76
2023/11/22 04:06:50;;;;;;;12.18;5.80;;;;;;;0.95;82.03;99849.31;5049962;28;20061;-76
2023/11/22 04:09:16;;;;;;;15.02;7.22;;;;;;;1.16;81.41;99861.00;5048741;28;20017;-76
2023/11/22 04:11:42;;;;;;;12.82;6.20;;;;;;;0.86;79.83;99866.06;5049585;28;20021;-74
2023/11/22 04:14:08;;;;;;;9.82;6.15;;;;;;;1.02;80.41;99864.31;5051942;28;20031;-75
2023/11/22 04:16:33;;;;;;;15.93;6.55;;;;;;;0.61;80.70;99855.50;5048165;28;20113;-75
2023/11/22 04:18:59;;;;;;;11.90;7.15;;;;;;;-0.40;82.44;99866.03;5050005;28;20029;-75
2023/11/22 04:21:24;;;;;;;11.52;6.45;;;;;;;-0.92;84.70;99872.16;5053322;28;20389;-75
2023/11/22 04:23:49;;;;;;;15.15;6.18;;;;;;;-1.08;86.79;99879.88;5048505;28;20048;-75
2023/11/22 04:26:15;;;;;;;13.50;6.95;;;;;;;-1.00;86.70;99872.91;5048509;28;20040;-75
2023/11/22 04:28:41;;;;;;;12.18;7.07;;;;;;;0.14;86.69;99872.72;5054524;28;20478;-75
2023/11/22 04:31:08;;;;;;;11.63;7.25;;;;;;;-1.22;86.21;99862.06;5047947;28;20037;-75
2023/11/22 04:33:34;;;;;;;16.85;7.68;;;;;;;-0.32;86.37;99873.09;5047829;28;20119;-75
2023/11/22 04:36:00;;;;;;;14.70;6.97;;;;;;;-0.79;86.94;99883.09;5048450;28;20119;-75
2023/11/22 04:38:26;;;;;;;11.38;7.28;;;;;;;-0.98;86.13;99885.84;5044726;28;20035;-75
2023/11/22 04:40:51;;;;;;;13.48;6.90;;;;;;;-0.78;85.92;99895.19;5053212;28;20039;-75
2023/11/22 04:43:16;;;;;;;18.15;7.45;;;;;;;-0.84;86.84;99907.13;5043923;28;20043;-75
2023/11/22 04:45:43;;;;;;;14.35;6.82;;;;;;;0.05;86.23;99899.06;5042861;28;20121;-74
2023/11/22 04:48:08;;;;;;;11.40;6.22;;;;;;;0.27;84.50;99903.78;5042475;28;20040;-75
2023/11/22 04:50:34;;;;;;;14.43;6.35;;;;;;;-0.14;83.94;99908.81;5040950;28;20053;-75
2023/11/22 04:53:01;;;;;;;15.55;7.03;;;;;;;-0.79;86.21;99914.53;5030738;28;20079;-74
2023/11/22 04:55:27;;;;;;;14.57;6.68;;;;;;;-0.88;86.00;99920.66;5036741;28;20041;-75
2023/11/22 04:57:53;;;;;;;11.18;6.25;;;;;;;-0.56;85.96;99915.72;5047200;28;20500;-73
2023/11/22 05:00:19;;;;;;;11.32;6.22;;;;;;;-0.04;85.25;99927.91;5059359;28;20185;-74
2023/11/22 05:02:44;;;;;;;11.07;6.20;;;;;;;0.15;84.58;99920.81;5041788;28;20040;-74
2023/11/22 05:05:10;;;;;;;10.40;6.53;;;;;;;-0.77;85.21;99926.53;5040501;28;20036;-74
2023/11/22 05:07:36;;;;;;;12.18;6.45;;;;;;;-0.72;86.45;99923.44;5050647;28;20029;-75
2023/11/22 05:10:05;;;;;;;11.88;6.53;;;;;;;-0.77;85.65;99929.16;5045918;28;20028;-75
2023/11/22 05:12:31;;;;;;;10.95;6.57;;;;;;;-0.58;84.77;99922.06;5047506;28;20029;-75
2023/11/22 05:14:57;;;;;;;10.65;5.85;;;;;;;-0.61;87.43;99920.56;5046501;28;20448;-75
2023/11/22 05:17:22;;;;;;;12.07;6.05;;;;;;;0.00;84.55;99923.97;5048067;28;20025;-76
2023/11/22 05:19:47;;;;;;;11.93;6.05;;;;;;;0.23;83.13;99910.34;5043922;28;20033;-75
2023/11/22 05:22:13;;;;;;;12.23;6.45;;;;;;;-0.85;85.18;99913.31;5044459;28;20097;-75
2023/11/22 05:24:41;;;;;;;12.07;7.40;;;;;;;-1.38;87.76;99922.09;5043690;28;20473;-75
2023/11/22 05:27:07;;;;;;;13.65;7.45;;;;;;;-1.22;89.32;99922.28;5042394;28;20044;-75
2023/11/22 05:29:33;;;;;;;17.23;7.10;;;;;;;-0.84;89.49;99908.91;5045601;28;20083;-75
2023/11/22 05:31:59;;;;;;;11.73;6.97;;;;;;;-0.63;86.65;99925.16;5043981;28;20033;-76
2023/11/22 05:34:25;;;;;;;12.98;7.10;;;;;;;0.69;84.38;99923.84;5045282;28;20504;-76
2023/11/22 05:36:50;;;;;;;16.33;6.82;;;;;;;1.18;81.12;99906.38;5043554;28;20037;-76
2023/11/22 05:39:17;;;;;;;14.68;6.63;;;;;;;1.42;79.86;99924.00;5046398;28;20072;-74
2023/11/22 05:41:43;;;;;;;14.80;6.28;;;;;;;1.55;79.14;99915.59;5043707;28;20251;-75
2023/11/22 05:44:08;;;;;;;8.98;5.60;;;;;;;1.47;79.05;99926.94;5046479;28;20608;-74
2023/11/22 05:46:33;;;;;;;8.68;5.80;;;;;;;1.52;79.23;99930.72;5046998;28;20064;-74
2023/11/22 05:49:00;;;;;;;9.52;5.80;;;;;;;1.34;78.79;99930.06;5049339;28;20029;-74
2023/11/22 05:51:25;;;;;;;12.30;6.22;;;;;;;1.04;78.71;99941.19;5046946;28;20040;-75
2023/11/22 05:53:51;;;;;;;11.02;6.18;;;;;;;0.64;80.79;99943.66;5055399;28;20041;-75
2023/11/22 05:56:19;;;;;;;9.10;6.13;;;;;;;0.38;81.57;99940.28;5052437;28;20094;-75
2023/11/22 05:58:44;;;;;;;13.95;6.55;;;;;;;0.70;81.75;99943.03;5048646;28;20456;-75
2023/11/22 06:01:13;;;;;;;9.70;6.32;;;;;;;-0.05;82.15;99928.06;5052435;28;20024;-75
2023/11/22 06:03:41;;;;;;;12.30;6.18;;;;;;;0.30;82.47;99945.50;5051419;28;20115;-74
2023/11/22 06:06:07;;;;;;;11.77;5.55;;;;;;;0.66;81.22;99936.44;5052886;28;20397;-75
2023/11/22 06:08:33;;;;;;;13.18;6.07;;;;;;;0.93;79.98;99946.75;5045110;28;20496;-75
2023/11/22 06:10:59;;;;;;;11.02;7.15;;;;;;;0.21;81.83;99946.41;5047988;28;20025;-75
2023/11/22 06:13:24;;;;;;;8.18;5.95;;;;;;;0.72;81.23;99951.59;5051606;28;20167;-76
2023/11/22 06:15:50;;;;;;;11.18;6.90;;;;;;;1.20;79.90;99950.91;5048463;28;20107;-76
2023/11/22 06:18:15;;;;;;;12.70;6.20;;;;;;;1.44;78.82;99949.13;5035328;28;20124;-76
2023/11/22 06:20:43;;;;;;;10.88;6.65;;;;;;;1.52;78.32;99961.47;5050435;28;20074;-75
2023/11/22 06:23:08;;;;;;;11.07;6.40;;;;;;;1.51;78.02;99970.34;5052022;28;20112;-75
2023/11/22 06:25:35;;;;;;;12.75;6.70;;;;;;;1.57;77.76;99974.97;5042289;28;20060;-75
2023/11/22 06:28:01;;;;;;;11.13;5.75;;;;;;;1.64;77.43;99988.28;5033866;28;20038;-76
2023/11/22 06:30:27;;;;;;;9.68;6.03;;;;;;;1.55;78.04;99986.63;5033732;28;20033;-76
2023/11/22 06:32:52;;;;;;;10.90;6.15;;;;;;;1.49;77.34;99994.19;5034718;28;20033;-75
2023/11/22 06:35:17;;;;;;;13.35;6.53;;;;;;;1.47;77.56;100005.84;5035419;28;20124;-77
2023/11/22 06:37:43;;;;;;;12.45;6.32;;;;;;;0.37;79.78;99999.84;5052674;28;20119;-77
2023/11/22 06:40:12;;;;;;;10.05;6.03;;;;;;;0.30;80.92;100008.50;5052708;28;20033;-76
2023/11/22 06:42:38;;;;;;;13.18;6.75;;;;;;;0.53;81.34;100002.56;5052585;28;20481;-76
2023/11/22 06:45:09;;;;;;;13.50;7.05;;;;;;;0.67;80.75;100009.03;5036557;28;20078;-76
2023/11/22 06:47:42;;;;;;;17.17;6.70;;;;;;;1.18;78.96;100003.63;5051397;28;20041;-76
2023/11/22 06:50:10;;;;;;;9.88;6.13;;;;;;;1.17;78.53;100020.41;5044919;28;20067;-76
2023/11/22 06:52:39;;;;;;;10.35;6.80;;;;;;;1.30;78.26;100007.63;5047926;28;20390;-76
2023/11/22 06:55:07;;;;;;;10.40;6.15;;;;;;;1.40;77.70;100013.56;5045287;28;20041;-76
2023/11/22 06:57:33;;;;;;;8.82;6.07;;;;;;;1.39;77.98;100017.19;5051673;28;20029;-77
2023/11/22 07:00:01;;;;;;;12.80;5.90;;;;;;;1.47;77.69;100022.47;5048924;28;20116;-76
2023/11/22 07:02:26;;;;;;;10.98;6.05;;;;;;;1.43;77.83;100012.41;5046239;28;20037;-76
2023/11/22 07:04:51;;;;;;;7.45;5.35;;;;;;;1.41;77.89;100017.84;5047895;28;20118;-77
2023/11/22 07:07:17;;;;;;;10.93;6.88;;;;;;;1.35;77.90;100021.13;5051975;28;20066;-76
2023/11/22 07:09:42;;;;;;;10.93;6.72;;;;;;;1.34;77.74;100011.59;5044630;28;20025;-76
2023/11/22 07:12:08;;;;;;;9.75;6.93;;;;;;;1.41;78.00;100011.75;5051698;28;20043;-76
2023/11/22 07:14:33;;;;;;;9.57;5.95;;;;;;;1.45;77.97;100013.91;5052259;28;20079;-76
2023/11/22 07:16:59;;;;;;;10.52;6.72;;;;;;;1.43;78.09;100010.63;5048101;28;20048;-76
2023/11/22 07:19:25;;;;;;;9.63;6.20;;;;;;;1.38;78.41;100002.38;5051618;28;20553;-76
2023/11/22 07:21:51;;;;;;;11.70;5.68;;;;;;;1.46;78.67;99994.50;5043213;28;20140;-76
2023/11/22 07:24:18;;;;;;;8.80;6.25;;;;;;;1.52;78.14;99998.31;5047831;28;20029;-76
2023/11/22 07:26:44;;;;;;;9.57;6.15;;;;;;;1.61;77.96;100004.41;5045254;28;20060;-76
2023/11/22 07:29:09;;;;;;;10.93;5.85;;;;;;;1.48;78.07;99996.97;5049226;28;20083;-76
2023/11/22 07:31:35;;;;;;;10.77;6.00;;;;;;;1.28;78.28;100001.72;5046448;28;20441;-76
2023/11/22 07:34:01;;;;;;;10.98;6.93;;;;;;;1.46;78.71;100007.66;5048241;28;20037;-77
2023/11/22 07:36:28;;;;;;;8.77;6.45;;;;;;;1.26;79.53;100000.22;5052051;28;20028;-76
2023/11/22 07:38:54;;;;;;;8.35;5.68;;;;;;;1.53;78.19;100006.03;5043834;28;20075;-75
2023/11/22 07:41:19;;;;;;;9.88;5.97;;;;;;;1.44;78.23;99998.28;5047671;28;20033;-76
2023/11/22 07:43:44;;;;;;;9.38;6.50;;;;;;;0.72;79.89;99994.44;5033184;28;20028;-76
2023/11/22 07:46:12;;;;;;;10.30;6.25;;;;;;;1.37;79.79;100000.75;5042421;28;20389;-76
2023/11/22 07:48:40;;;;;;;9.27;6.03;;;;;;;1.41;79.07;100006.50;5048636;28;20024;-76
2023/11/22 07:51:06;;;;;;;16.48;7.07;;;;;;;0.94;80.19;100008.00;5040653;28;20136;-76
2023/11/22 07:53:34;;;;;;;12.82;6.47;;;;;;;0.12;82.27;99986.72;5045499;28;20600;-76
2023/11/22 07:56:05;;;;;;;10.25;6.95;;;;;;;-0.40;84.29;99989.28;5047009;28;20052;-75
2023/11/22 07:58:31;;;;;;;11.82;7.90;;;;;;;-0.51;86.20;99986.88;5047317;28;20040;-76
2023/11/22 08:00:57;;;;;;;16.30;7.53;;;;;;;-0.03;85.54;99992.53;5048370;28;20394;-76
2023/11/22 08:03:25;;;;;;;10.38;6.85;;;;;;;0.17;83.50;99979.22;5043423;28;20104;-75
2023/11/22 08:05:55;;;;;;;10.52;6.65;;;;;;;0.63;83.05;99984.06;5049112;28;20354;-75
2023/11/22 08:08:24;;;;;;;13.07;7.07;;;;;;;-0.72;86.42;99988.16;5051584;28;20016;-75
2023/11/22 08:10:53;;;;;;;15.80;7.18;;;;;;;-0.71;88.35;99988.00;5049925;28;20040;-75
2023/11/22 08:13:19;;;;;;;11.05;6.13;;;;;;;0.42;85.99;99994.13;5045190;28;20029;-75
2023/11/22 08:15:46;;;;;;;18.25;7.25;;;;;;;0.72;84.04;99993.63;5045431;28;20108;-75
2023/11/22 08:18:13;;;;;;;12.50;7.05;;;;;;;1.25;81.75;99990.69;5047071;28;20436;-75
2023/11/22 08:20:40;;;;;;;8.50;5.93;;;;;;;0.82;82.63;100006.63;5046702;28;20041;-75
2023/11/22 08:23:06;;;;;;;11.77;6.03;;;;;;;0.75;82.03;99998.56;5042549;28;20827;-75
2023/11/22 08:25:31;;;;;;;13.85;6.93;;;;;;;-0.28;84.34;99998.53;5050150;28;20053;-75
2023/11/22 08:27:57;;;;;;;10.07;6.72;;;;;;;-0.39;86.61;100001.41;5054288;28;20057;-75
2023/11/22 08:30:23;;;;;;;13.75;6.55;;;;;;;0.02;87.25;100002.56;5049254;28;20055;-75
2023/11/22 08:32:53;;;;;;;11.77;7.45;;;;;;;0.26;85.76;99984.38;5049126;28;20036;-75
2023/11/22 08:35:19;;;;;;;17.75;7.03;;;;;;;0.52;85.49;100008.81;5050453;28;20033;-75
2023/11/22 08:37:47;;;;;;;16.35;8.35;;;;;;;0.05;86.04;100006.66;5066304;28;20433;-75
2023/11/22 08:40:14;;;;;;;15.65;8.27;;;;;;;-0.40;86.55;100018.13;5048043;28;20029;-75
2023/11/22 08:42:40;;;;;;;11.90;7.80;;;;;;;0.96;84.97;100020.00;5040861;28;20063;-75
2023/11/22 08:45:08;;;;;;;11.82;6.75;;;;;;;-0.33;84.65;100027.00;5044938;28;20426;-75
2023/11/22 08:47:34;;;;;;;19.67;7.35;;;;;;;-0.17;87.48;100050.78;5042583;28;20406;-75
2023/11/22 08:49:59;;;;;;;16.40;7.80;;;;;;;-0.58;87.58;100053.97;5043948;28;20381;-75
2023/11/22 08:52:25;;;;;;;11.38;7.93;;;;;;;0.05;88.21;100064.41;5046181;28;20052;-75
2023/11/22 08:54:51;;;;;;;13.20;7.38;;;;;;;1.10;84.74;100071.97;5045738;28;20100;-75
2023/11/22 08:57:17;;;;;;;12.25;7.57;;;;;;;-0.12;86.51;100080.03;5030900;28;20053;-75
2023/11/22 08:59:42;;;;;;;14.45;8.20;;;;;;;-0.51;88.78;100081.28;5039545;28;20511;-75
2023/11/22 09:02:08;;;;;;;18.90;8.65;;;;;;;-0.65;89.46;100079.13;5046397;28;20453;-75
2023/11/22 09:04:33;;;;;;;12.27;6.82;;;;;;;-0.16;89.65;100083.94;5045511;28;20036;-75
2023/11/22 09:07:00;;;;;;;11.52;7.55;;;;;;;-0.22;87.70;100087.13;5045542;28;20064;-75
2023/11/22 09:09:30;;;;;;;12.70;8.15;;;;;;;-0.19;89.21;100075.50;5046038;28;20029;-75
2023/11/22 09:11:57;;;;;;;13.63;7.07;;;;;;;-0.10;88.05;100069.38;5049835;28;20025;-75
2023/11/22 09:14:23;;;;;;;13.32;7.45;;;;;;;0.80;86.18;100071.66;5049157;28;20052;-75
2023/11/22 09:16:54;;;;;;;12.80;7.50;;;;;;;0.92;85.57;100073.06;5050795;28;20033;-75
2023/11/22 09:19:23;;;;;;;10.18;7.10;;;;;;;1.59;82.18;100051.91;5052920;28;20512;-75
2023/11/22 09:21:49;;;;;;;14.27;7.03;;;;;;;0.38;83.78;100053.19;5047716;28;20044;-75
2023/11/22 09:24:15;;;;;;;12.23;7.55;;;;;;;-0.30;86.29;100066.06;5051907;28;20028;-75
2023/11/22 09:26:41;;;;;;;10.45;7.60;;;;;;;0.08;87.05;100062.31;5052899;28;20033;-75
2023/11/22 09:29:06;;;;;;;14.77;7.78;;;;;;;0.34;85.48;100050.03;5054191;28;20029;-75
2023/11/22 09:31:32;;;;;;;12.55;7.70;;;;;;;0.15;87.35;100042.38;5045570;28;20168;-75
2023/11/22 09:33:57;;;;;;;14.30;7.68;;;;;;;0.48;86.60;100048.66;5052381;28;20029;-75
2023/11/22 09:36:27;;;;;;;11.27;7.20;;;;;;;0.71;85.02;100065.53;5053821;28;20044;-76
2023/11/22 09:38:52;;;;;;;14.82;7.90;;;;;;;1.41;83.78;100061.72;5053580;28;20435;-76
2023/11/22 09:41:17;;;;;;;11.75;8.27;;;;;;;2.10;80.01;100074.50;5043203;28;20037;-76
2023/11/22 09:43:46;;;;;;;11.27;7.65;;;;;;;1.76;81.48;100076.44;5048335;28;20029;-76
2023/11/22 09:46:13;;;;;;;15.73;8.13;;;;;;;2.07;80.19;100069.56;5045762;28;20027;-75
2023/11/22 09:48:39;;;;;;;12.55;6.93;;;;;;;2.44;77.80;100048.00;5050484;28;20028;-75
2023/11/22 09:51:11;;;;;;;12.52;6.38;;;;;;;2.12;80.94;100064.63;5049291;28;20551;-76
2023/11/22 09:54:04;;;;;;;10.50;6.78;;;;;;;2.59;76.34;100060.31;5052557;28;20025;-76
2023/11/22 09:56:30;;;;;;;10.50;7.05;;;;;;;2.71;76.20;100071.34;5053276;28;20033;-75
2023/11/22 09:59:00;;;;;;;18.50;10.32;;;;;;;2.60;76.29;100066.41;5053657;28;20028;-75
2023/11/22 10:01:36;;;;;;;65.63;26.48;;;;;;;2.33;78.31;100056.22;5051688;28;20036;-76
2023/11/22 10:04:05;;;;;;;41.78;17.92;;;;;;;2.79;75.65;100061.59;5050086;28;20082;-76
2023/11/22 10:06:34;;;;;;;21.77;11.20;;;;;;;2.82;75.04;100058.59;5052358;28;20036;-76
2023/11/22 10:09:00;;;;;;;16.63;10.35;;;;;;;2.93;73.88;100062.69;5053401;28;20045;-76
2023/11/22 10:11:26;;;;;;;15.90;10.15;;;;;;;2.93;73.79;100055.59;5052047;28;20020;-75
2023/11/22 10:13:51;;;;;;;10.68;7.05;;;;;;;2.44;76.30;100043.53;5053160;28;20035;-76
2023/11/22 10:16:18;;;;;;;14.23;8.52;;;;;;;2.77;74.62;100053.03;5053262;28;20424;-76
2023/11/22 10:18:46;;;;;;;11.93;8.52;;;;;;;2.86;73.93;100038.81;5053182;28;20501;-76
2023/11/22 10:21:24;;;;;;;10.60;7.15;;;;;;;3.10;72.80;100037.09;5050437;28;20478;-76
2023/11/22 10:23:56;;;;;;;11.68;7.55;;;;;;;2.52;76.57;100040.88;5051946;28;20020;-76
2023/11/22 10:26:23;;;;;;;11.15;7.28;;;;;;;3.06;73.12;100067.44;5050888;28;20033;-77
2023/11/22 10:28:51;;;;;;;8.65;6.28;;;;;;;2.95;73.05;100058.06;5052613;28;20025;-75
2023/11/22 10:31:17;;;;;;;12.32;8.25;;;;;;;2.50;77.22;100063.94;5052684;28;20107;-75
2023/11/22 10:33:43;;;;;;;11.70;7.88;;;;;;;3.09;71.60;100059.19;5052657;28;20052;-75
2023/11/22 10:36:09;;;;;;;11.88;7.75;;;;;;;2.98;72.23;100066.47;5051589;28;20037;-76
2023/11/22 10:38:37;;;;;;;12.10;7.88;;;;;;;3.13;71.32;100055.19;5051918;28;20056;-76
2023/11/22 10:41:07;;;;;;;9.50;6.43;;;;;;;3.28;70.60;100064.88;5049078;28;20040;-75
2023/11/22 10:43:35;;;;;;;8.95;7.18;;;;;;;3.24;70.56;100066.22;5046305;28;20033;-75
2023/11/22 10:46:02;;;;;;;11.75;6.45;;;;;;;3.23;69.96;100069.84;5052299;28;20021;-75
2023/11/22 10:48:29;;;;;;;6.88;6.18;;;;;;;3.27;69.67;100060.59;5051510;28;20478;-76
2023/11/22 10:50:57;;;;;;;10.50;6.80;;;;;;;3.21;69.39;100074.44;5046135;28;20025;-76
2023/11/22 10:53:32;;;;;;;12.55;7.30;;;;;;;3.11;70.09;100071.19;5053080;28;20033;-75
2023/11/22 10:56:11;;;;;;;20.60;12.38;;;;;;;2.48;71.05;100079.09;5052418;28;20017;-75
2023/11/22 10:58:46;;;;;;;11.93;7.55;;;;;;;2.96;70.35;100084.28;5050767;28;20036;-76
2023/11/22 11:01:13;;;;;;;11.90;7.10;;;;;;;3.13;69.28;100095.59;5049361;28;20417;-76
2023/11/22 11:03:41;;;;;;;9.18;6.15;;;;;;;3.07;69.42;100098.09;5048304;28;20324;-76
2023/11/22 11:06:10;;;;;;;9.18;7.43;;;;;;;2.64;71.92;100101.97;5050670;28;20032;-75
2023/11/22 11:08:38;;;;;;;11.48;9.40;;;;;;;2.89;71.51;100101.75;5043766;28;20032;-75
2023/11/22 11:11:04;;;;;;;10.30;8.30;;;;;;;2.45;72.53;100091.78;5050087;28;20431;-76
2023/11/22 11:13:30;;;;;;;13.40;8.30;;;;;;;2.28;72.92;100097.06;5049657;28;20040;-75
2023/11/22 11:15:57;;;;;;;12.07;7.40;;;;;;;2.97;71.82;100090.38;5050596;28;20025;-75
2023/11/22 11:18:24;;;;;;;11.85;6.93;;;;;;;2.41;70.47;100096.56;5051087;28;20028;-76
2023/11/22 11:20:55;;;;;;;10.90;7.22;;;;;;;2.03;73.36;100102.50;5050877;28;20064;-75
2023/11/22 11:23:27;;;;;;;9.63;7.18;;;;;;;1.48;72.14;100096.94;5051171;28;20932;-75
2023/11/22 11:25:59;;;;;;;8.98;7.35;;;;;;;1.64;73.76;100099.59;5050954;28;20090;-75
2023/11/22 11:28:28;;;;;;;11.93;7.45;;;;;;;1.02;71.84;100089.53;5051116;28;20037;-75